Aérodrome :
LOGIN :

S'inscrire | Disclaimer

   EN    FR    IT 

 










Légende :    VFR   VFR Marginal   IFR   IFR Intensif   IFR Très Intensif
Visi : 
Plafond : 
>= 8 km
>= 3000ft
5 à 8 km
1000 à 3000 ft
1500m à 5 km
500 à 1000 ft
800 à 1500m
200 à 500 ft
< 800m
< 200 ft
Symboles :   Orages  Brouillard  Fortes neiges  Fortes précipitations  Vent > 20 kt
SIGMETs :   Divers  Orages  Givrage  Turbulence  Onde Orograph.  Cendres Volcan.







- Altitude de l'aérodrome : 141 ft
- Code IATA : SKS


EKSP - Srydstrup Vojens

DERNIER METAR :
  • 220620Z 00000KT 8000 BKN008 BKN030 01/M00 Q1026 TEMPO 3000 BR

METARs EXPIRÉS :
  • 220555Z 05001KT 9999 BKN008 BKN030 01/M00 Q1026 TEMPO 3000 BR
  • 220550Z 04001KT 9999 BKN010 BKN030 01/M00 Q1026 TEMPO 3000 BR
  • 220520Z 23002KT 9999 BKN010 BKN030 01/M00 Q1026 TEMPO 3000 BR

TAF TAF EKSP
Valide du 22 à 06h jusqu'au 23 à 06h UTC


220528Z 2206/2306 24005KT 8000 BKN010
TEMPO 2206/2210 2500 BR BKN004
BECMG 2210/2212 09008KT BKN015
TEMPO 2212/2218 BKN008
Pas de NOTAMs connus pour ce terrain.



MET'MAP, la Météo Aéronautique d'un coup d'oeil ! - Copyright ORBIFLY Décembre 2007 - Disclaimer

ORBIFLY MET'MAP TEAM :

Programmation & Développement : Alexandra Zaïnal
Conception & Développement : Baudouin d'Aumeries
Co-Programmation & Développement : Marc-Olivier Méhu
Soutien technique & logistique : Manuel Goepfert

Contact : metmap@orbifly.com




SOURCES & CREDITS :

   NOAA